createdAt,value
2017-07-10T00:01:03.237Z,1005.62
2017-07-10T00:02:12.519Z,1005.62
2017-07-10T00:03:21.790Z,1005.68
2017-07-10T00:04:30.433Z,1005.62
2017-07-10T00:05:40.017Z,1005.65
2017-07-10T00:06:49.290Z,1005.71
2017-07-10T00:07:58.867Z,1005.64
2017-07-10T00:09:08.442Z,1005.64
2017-07-10T00:10:17.393Z,1005.63
2017-07-10T00:11:26.366Z,1005.58
2017-07-10T00:12:35.332Z,1005.6
2017-07-10T00:13:44.287Z,1005.57
2017-07-10T00:14:53.264Z,1005.5
2017-07-10T00:16:02.214Z,1005.47
2017-07-10T00:17:11.178Z,1005.43
2017-07-10T00:18:20.145Z,1005.38
2017-07-10T00:19:29.129Z,1005.33
2017-07-10T00:20:38.421Z,1005.29
2017-07-10T00:21:47.525Z,1005.26
2017-07-10T00:22:57.423Z,1005.22
2017-07-10T00:24:06.376Z,1005.19
2017-07-10T00:25:15.033Z,1005.19
2017-07-10T00:26:23.999Z,1005.13
2017-07-10T00:27:33.287Z,1005.12
2017-07-10T00:28:42.251Z,1005.17
2017-07-10T00:29:51.531Z,1005.15
2017-07-10T00:31:00.502Z,1005.15
2017-07-10T00:32:09.464Z,1005.16
2017-07-10T00:33:18.123Z,1005.19
2017-07-10T00:34:27.702Z,1005.24
2017-07-10T00:35:36.990Z,1005.23
2017-07-10T00:36:46.314Z,1005.21
2017-07-10T00:37:55.280Z,1005.2
2017-07-10T00:39:04.928Z,1005.12
2017-07-10T00:40:14.206Z,1005.13
2017-07-10T00:41:23.163Z,1005.08
2017-07-10T00:42:32.441Z,1005.06
2017-07-10T00:43:41.725Z,1005
2017-07-10T00:44:50.830Z,1004.94
2017-07-10T00:46:00.117Z,1004.93
2017-07-10T00:47:09.378Z,1004.86
2017-07-10T00:48:18.024Z,1004.81
2017-07-10T00:49:26.978Z,1004.86
2017-07-10T00:50:36.251Z,1004.82
2017-07-10T00:51:45.840Z,1004.82
2017-07-10T00:52:54.795Z,1004.79
2017-07-10T00:54:03.433Z,1004.84
2017-07-10T00:55:12.386Z,1004.86
2017-07-10T00:56:21.709Z,1004.85
2017-07-10T00:57:31.602Z,1004.88
2017-07-10T00:58:40.558Z,1004.86
2017-07-10T00:59:49.831Z,1004.9
2017-07-10T01:00:59.103Z,1004.9
2017-07-10T01:02:08.381Z,1004.9
2017-07-10T01:03:17.344Z,1004.89
2017-07-10T01:04:26.302Z,1004.86
2017-07-10T01:05:35.257Z,1004.87
2017-07-10T01:06:44.546Z,1004.85
2017-07-10T01:07:53.506Z,1004.79
2017-07-10T01:09:02.456Z,1004.74
2017-07-10T01:10:11.160Z,1004.73
2017-07-10T01:11:20.432Z,1004.72
2017-07-10T01:12:29.697Z,1004.69
2017-07-10T01:13:38.667Z,1004.66
2017-07-10T01:14:47.936Z,1004.62
2017-07-10T01:15:56.584Z,1004.6
2017-07-10T01:17:06.195Z,1004.55
2017-07-10T01:18:15.480Z,1004.53
2017-07-10T01:19:25.070Z,1004.55
2017-07-10T01:20:34.343Z,1004.52
2017-07-10T01:21:42.984Z,1004.53
2017-07-10T01:22:52.268Z,1004.57
2017-07-10T01:24:00.917Z,1004.58
2017-07-10T01:25:09.876Z,1004.61
2017-07-10T01:26:19.140Z,1004.6
2017-07-10T01:27:28.734Z,1004.59
2017-07-10T01:28:37.690Z,1004.51
2017-07-10T01:29:46.653Z,1004.48
2017-07-10T01:30:55.623Z,1004.46
2017-07-10T01:32:04.894Z,1004.41
2017-07-10T01:33:13.865Z,1004.38
2017-07-10T01:34:23.141Z,1004.35
2017-07-10T01:35:32.102Z,1004.34
2017-07-10T01:36:41.056Z,1004.38
2017-07-10T01:37:50.402Z,1004.4
2017-07-10T01:38:59.055Z,1004.4
2017-07-10T01:40:07.703Z,1004.38
2017-07-10T01:41:16.351Z,1004.37
2017-07-10T01:42:25.622Z,1004.37
2017-07-10T01:43:35.214Z,1004.43
2017-07-10T01:44:44.166Z,1004.44
2017-07-10T01:45:53.464Z,1004.39
2017-07-10T01:47:02.422Z,1004.4
2017-07-10T01:48:11.422Z,1004.42
2017-07-10T01:49:20.398Z,1004.37
2017-07-10T01:50:29.681Z,1004.35
2017-07-10T01:51:38.946Z,1004.36
2017-07-10T01:52:47.970Z,1004.34
2017-07-10T01:53:57.247Z,1004.34
2017-07-10T01:55:06.512Z,1004.33
2017-07-10T01:56:15.798Z,1004.35
2017-07-10T01:57:25.077Z,1004.26
2017-07-10T01:58:34.362Z,1004.28
2017-07-10T01:59:43.636Z,1004.21
2017-07-10T02:00:52.599Z,1004.19
2017-07-10T02:02:02.185Z,1004.13
2017-07-10T02:03:11.136Z,1004.13
2017-07-10T02:04:20.408Z,1004.14
2017-07-10T02:05:29.682Z,1004.13
2017-07-10T02:06:38.629Z,1004.13
2017-07-10T02:07:47.900Z,1004.14
2017-07-10T02:08:57.172Z,1004.11
2017-07-10T02:10:06.133Z,1004.12
2017-07-10T02:11:15.714Z,1004.16
2017-07-10T02:12:24.695Z,1004.18
2017-07-10T02:13:33.651Z,1004.18
2017-07-10T02:14:43.244Z,1004.23
2017-07-10T02:15:52.201Z,1004.26
2017-07-10T02:17:00.843Z,1004.32
2017-07-10T02:18:10.805Z,1004.34
2017-07-10T02:19:19.452Z,1004.36
2017-07-10T02:20:28.407Z,1004.36
2017-07-10T02:21:37.060Z,1004.31
2017-07-10T02:22:46.649Z,1004.26
2017-07-10T02:23:55.303Z,1004.22
2017-07-10T02:25:04.020Z,1004.17
2017-07-10T02:26:12.986Z,1004.19
2017-07-10T02:29:54.646Z,1004.14
2017-07-10T02:31:03.292Z,1004.13
2017-07-10T02:32:12.570Z,1004.15
2017-07-10T02:33:21.530Z,1004.11
2017-07-10T02:34:30.799Z,1004.13
2017-07-10T02:35:39.767Z,1004.06
2017-07-10T02:36:48.415Z,1004.04
2017-07-10T02:37:58.005Z,1004.03
2017-07-10T02:39:07.286Z,1004.01
2017-07-10T02:40:16.253Z,1003.98
2017-07-10T02:41:25.230Z,1003.97
2017-07-10T02:42:34.262Z,1003.97
2017-07-10T02:43:43.214Z,1003.93
2017-07-10T02:44:52.168Z,1003.91
2017-07-10T02:46:00.806Z,1003.86
2017-07-10T02:47:09.757Z,1003.85
2017-07-10T02:48:19.365Z,1003.83
2017-07-10T02:49:28.019Z,1003.83
2017-07-10T02:50:36.990Z,1003.8
2017-07-10T02:51:45.951Z,1003.78
2017-07-10T02:52:54.596Z,1003.81
2017-07-10T02:54:03.548Z,1003.81
2017-07-10T02:55:12.515Z,1003.82
2017-07-10T02:56:21.161Z,1003.79
2017-07-10T02:57:30.446Z,1003.76
2017-07-10T02:58:39.721Z,1003.76
2017-07-10T02:59:49.628Z,1003.71
2017-07-10T03:00:58.921Z,1003.69
2017-07-10T03:02:08.513Z,1003.67
2017-07-10T03:03:17.468Z,1003.59
2017-07-10T03:04:26.112Z,1003.55
2017-07-10T03:05:35.405Z,1003.51
2017-07-10T03:06:44.698Z,1003.5
2017-07-10T03:07:54.289Z,1003.49
2017-07-10T03:09:03.239Z,1003.49
2017-07-10T03:10:12.223Z,1003.51
2017-07-10T03:11:21.179Z,1003.52
2017-07-10T03:12:30.771Z,1003.49
2017-07-10T03:13:40.685Z,1003.44
2017-07-10T03:14:49.321Z,1003.44
2017-07-10T03:15:58.641Z,1003.42
2017-07-10T03:17:07.288Z,1003.36
2017-07-10T03:18:16.861Z,1003.35
2017-07-10T03:19:26.142Z,1003.37
2017-07-10T03:20:35.424Z,1003.41
2017-07-10T03:21:44.692Z,1003.44
2017-07-10T03:22:53.661Z,1003.44
2017-07-10T03:24:02.609Z,1003.52
2017-07-10T03:25:11.566Z,1003.46
2017-07-10T03:26:20.834Z,1003.49
2017-07-10T03:27:30.114Z,1003.53
2017-07-10T03:28:39.098Z,1003.49
2017-07-10T03:29:48.684Z,1003.53
2017-07-10T03:30:57.638Z,1003.52
2017-07-10T03:32:06.605Z,1003.5
2017-07-10T03:33:15.878Z,1003.52
2017-07-10T03:34:24.547Z,1003.5
2017-07-10T03:35:33.812Z,1003.45
2017-07-10T03:36:43.399Z,1003.44
2017-07-10T03:37:52.042Z,1003.44
2017-07-10T03:39:01.316Z,1003.42
2017-07-10T03:40:10.591Z,1003.38
2017-07-10T03:41:19.554Z,1003.41
2017-07-10T03:42:28.514Z,1003.38
2017-07-10T03:43:37.474Z,1003.39
2017-07-10T03:44:46.429Z,1003.38
2017-07-10T03:45:55.085Z,1003.41
2017-07-10T03:47:04.052Z,1003.41
2017-07-10T03:48:13.010Z,1003.42
2017-07-10T03:49:21.962Z,1003.38
2017-07-10T03:50:30.952Z,1003.41
2017-07-10T03:51:39.908Z,1003.42
2017-07-10T03:52:48.877Z,1003.44
2017-07-10T03:53:57.512Z,1003.42
2017-07-10T03:55:07.098Z,1003.41
2017-07-10T03:56:16.046Z,1003.45
2017-07-10T03:57:24.725Z,1003.45
2017-07-10T03:58:34.301Z,1003.44
2017-07-10T03:59:43.277Z,1003.43
2017-07-10T04:00:52.236Z,1003.41
2017-07-10T04:02:01.514Z,1003.41
2017-07-10T04:03:10.790Z,1003.4
2017-07-10T04:04:20.380Z,1003.41
2017-07-10T04:05:29.024Z,1003.42
2017-07-10T04:06:38.290Z,1003.43
2017-07-10T04:07:46.991Z,1003.44
2017-07-10T04:08:56.259Z,1003.48
2017-07-10T04:10:05.832Z,1003.43
2017-07-10T04:11:15.109Z,1003.47
2017-07-10T04:12:24.064Z,1003.48
2017-07-10T04:13:33.019Z,1003.46
2017-07-10T04:14:42.627Z,1003.44
2017-07-10T04:15:51.596Z,1003.43
2017-07-10T04:17:00.874Z,1003.4
2017-07-10T04:18:09.824Z,1003.45
2017-07-10T04:19:19.099Z,1003.45
2017-07-10T04:20:28.372Z,1003.49
2017-07-10T04:21:37.328Z,1003.52
2017-07-10T04:22:45.970Z,1003.59
2017-07-10T04:23:54.613Z,1003.59
2017-07-10T04:25:03.570Z,1003.64
2017-07-10T04:26:12.536Z,1003.66
2017-07-10T04:27:22.125Z,1003.72
2017-07-10T04:28:31.082Z,1003.73
2017-07-10T04:29:40.040Z,1003.77
2017-07-10T04:30:48.686Z,1003.8
2017-07-10T04:31:57.319Z,1003.84
2017-07-10T04:33:06.914Z,1003.87
2017-07-10T04:34:15.556Z,1003.91
2017-07-10T04:35:24.911Z,1003.94
2017-07-10T04:36:33.547Z,1003.92
2017-07-10T04:37:42.510Z,1003.92
2017-07-10T04:38:52.111Z,1003.91
2017-07-10T04:40:01.396Z,1003.89
2017-07-10T04:41:10.350Z,1003.91
2017-07-10T04:42:19.629Z,1003.89
2017-07-10T04:43:28.895Z,1003.91
2017-07-10T04:44:37.852Z,1003.91
2017-07-10T04:45:46.823Z,1003.91
2017-07-10T04:46:56.114Z,1003.92
2017-07-10T04:48:05.377Z,1003.93
2017-07-10T04:49:14.642Z,1003.96
2017-07-10T04:50:23.917Z,1003.99
2017-07-10T04:51:33.517Z,1003.97
2017-07-10T04:52:42.785Z,1003.96
2017-07-10T04:53:52.375Z,1003.96
2017-07-10T04:55:01.653Z,1003.98
2017-07-10T04:56:10.998Z,1004
2017-07-10T04:57:20.278Z,1004.01
2017-07-10T04:58:29.242Z,1003.97
2017-07-10T04:59:38.208Z,1003.99
2017-07-10T05:00:47.231Z,1004.01
2017-07-10T05:01:56.521Z,1004.04
2017-07-10T05:03:05.485Z,1004.03
2017-07-10T05:04:15.130Z,1004.04
2017-07-10T05:05:24.149Z,1004.03
2017-07-10T05:06:32.805Z,1004.05
2017-07-10T05:07:41.769Z,1004.08
2017-07-10T05:08:51.045Z,1004.07
2017-07-10T05:10:00.339Z,1004.07
2017-07-10T05:11:09.379Z,1004.07
2017-07-10T05:12:18.658Z,1004.05
2017-07-10T05:13:27.309Z,1004.07
2017-07-10T05:14:36.264Z,1004.07
2017-07-10T05:15:45.564Z,1004.06
2017-07-10T05:16:55.162Z,1004.03
2017-07-10T05:18:04.117Z,1004.06
2017-07-10T05:19:13.071Z,1004.07
2017-07-10T05:20:22.026Z,1004.06
2017-07-10T05:21:30.670Z,1004.06
2017-07-10T05:22:39.973Z,1004.05
2017-07-10T05:23:48.613Z,1004.02
2017-07-10T05:24:57.579Z,1004.04
2017-07-10T05:26:06.237Z,1004.05
2017-07-10T05:27:15.185Z,1004.03
2017-07-10T05:28:23.888Z,1004
2017-07-10T05:29:32.539Z,1004.02
2017-07-10T05:30:41.808Z,1004.02
2017-07-10T05:31:50.446Z,1003.99
2017-07-10T05:32:59.414Z,1003.97
2017-07-10T05:34:08.687Z,1003.96
2017-07-10T05:35:17.979Z,1003.92
2017-07-10T05:36:27.255Z,1003.94
2017-07-10T05:37:36.852Z,1003.85
2017-07-10T05:38:45.811Z,1003.84
2017-07-10T05:39:54.765Z,1003.79
2017-07-10T05:41:03.728Z,1003.78
2017-07-10T05:42:12.370Z,1003.7
2017-07-10T05:43:21.977Z,1003.66
2017-07-10T05:44:30.952Z,1003.63
2017-07-10T05:45:41.004Z,1003.66
2017-07-10T05:46:51.447Z,1003.62
2017-07-10T05:48:00.411Z,1003.66
2017-07-10T05:49:09.877Z,1003.64
2017-07-10T05:50:19.144Z,1003.7
2017-07-10T05:51:28.480Z,1003.7
2017-07-10T05:52:37.448Z,1003.76
2017-07-10T05:53:46.725Z,1003.81
2017-07-10T05:54:55.392Z,1003.85
2017-07-10T05:56:04.353Z,1003.88
2017-07-10T05:57:13.620Z,1003.89
2017-07-10T05:58:22.267Z,1003.91
2017-07-10T05:59:31.228Z,1003.88
2017-07-10T06:00:40.188Z,1003.85
2017-07-10T06:01:48.902Z,1003.82
2017-07-10T06:02:58.344Z,1003.76
2017-07-10T06:04:06.990Z,1003.78
2017-07-10T06:05:15.658Z,1003.83
2017-07-10T06:06:24.306Z,1003.84
2017-07-10T06:07:33.962Z,1003.86
2017-07-10T06:08:43.996Z,1003.88
2017-07-10T06:09:52.669Z,1003.87
2017-07-10T06:11:02.051Z,1003.86
2017-07-10T06:12:12.212Z,1003.85
2017-07-10T06:13:21.221Z,1003.86
2017-07-10T06:14:30.501Z,1003.84
2017-07-10T06:15:39.850Z,1003.85
2017-07-10T06:16:49.494Z,1003.91
2017-07-10T06:17:59.122Z,1003.9
2017-07-10T06:19:08.116Z,1003.91
2017-07-10T06:20:17.187Z,1003.91
2017-07-10T06:21:26.479Z,1003.88
2017-07-10T06:22:35.450Z,1003.84
2017-07-10T06:23:45.062Z,1003.87
2017-07-10T06:24:54.369Z,1003.83
2017-07-10T06:26:03.516Z,1003.83
2017-07-10T06:27:12.813Z,1003.85
2017-07-10T06:28:22.097Z,1003.85
2017-07-10T06:29:31.380Z,1003.81
2017-07-10T06:30:40.368Z,1003.84
2017-07-10T06:31:49.804Z,1003.84
2017-07-10T06:32:59.075Z,1003.83
2017-07-10T06:34:08.676Z,1003.86
2017-07-10T06:35:17.336Z,1003.84
2017-07-10T06:36:26.945Z,1003.85
2017-07-10T06:37:35.754Z,1003.83
2017-07-10T06:38:44.721Z,1003.8
2017-07-10T06:39:54.006Z,1003.77
2017-07-10T06:41:03.292Z,1003.78
2017-07-10T06:42:12.626Z,1003.78
2017-07-10T06:43:21.438Z,1003.8
2017-07-10T06:44:30.410Z,1003.8
2017-07-10T06:45:39.403Z,1003.8
2017-07-10T06:46:49.324Z,1003.84
2017-07-10T06:47:58.328Z,1003.82
2017-07-10T06:49:07.298Z,1003.84
2017-07-10T06:50:15.935Z,1003.8
2017-07-10T06:51:25.214Z,1003.79
2017-07-10T06:52:34.502Z,1003.79
2017-07-10T06:53:43.160Z,1003.74
2017-07-10T06:54:52.280Z,1003.75
2017-07-10T06:56:01.571Z,1003.71
2017-07-10T06:57:10.853Z,1003.72
2017-07-10T06:58:19.832Z,1003.67
2017-07-10T06:59:29.125Z,1003.67
2017-07-10T07:00:38.236Z,1003.64
2017-07-10T07:01:47.523Z,1003.63
2017-07-10T07:02:56.498Z,1003.64
2017-07-10T07:04:05.160Z,1003.66
2017-07-10T07:05:13.810Z,1003.64
2017-07-10T07:06:23.099Z,1003.65
2017-07-10T07:07:32.057Z,1003.62
2017-07-10T07:08:41.021Z,1003.63
2017-07-10T07:09:49.737Z,1003.63
2017-07-10T07:10:58.701Z,1003.65
2017-07-10T07:12:07.720Z,1003.65
2017-07-10T07:13:16.703Z,1003.64
2017-07-10T07:14:25.660Z,1003.67
2017-07-10T07:15:34.942Z,1003.66
2017-07-10T07:16:44.207Z,1003.68
2017-07-10T07:17:53.267Z,1003.69
2017-07-10T07:19:02.243Z,1003.72
2017-07-10T07:20:11.535Z,1003.69
2017-07-10T07:21:20.516Z,1003.67
2017-07-10T07:22:29.789Z,1003.65
2017-07-10T07:23:38.861Z,1003.68
2017-07-10T07:24:47.509Z,1003.68
2017-07-10T07:25:56.486Z,1003.68
2017-07-10T07:27:05.772Z,1003.68
2017-07-10T07:28:15.679Z,1003.64
2017-07-10T07:29:24.481Z,1003.63
2017-07-10T07:30:33.448Z,1003.62
2017-07-10T07:31:42.411Z,1003.62
2017-07-10T07:32:51.377Z,1003.65
2017-07-10T07:34:00.365Z,1003.7
2017-07-10T07:35:09.480Z,1003.75
2017-07-10T07:36:18.762Z,1003.76
2017-07-10T07:37:27.413Z,1003.74
2017-07-10T07:38:37.023Z,1003.73
2017-07-10T07:39:46.615Z,1003.75
2017-07-10T07:40:56.250Z,1003.75
2017-07-10T07:42:05.842Z,1003.78
2017-07-10T07:43:14.860Z,1003.75
2017-07-10T07:44:23.831Z,1003.74
2017-07-10T07:45:32.788Z,1003.7
2017-07-10T07:46:41.751Z,1003.74
2017-07-10T07:47:51.023Z,1003.7
2017-07-10T07:49:00.305Z,1003.72
2017-07-10T07:50:08.952Z,1003.67
2017-07-10T07:51:17.913Z,1003.6
2017-07-10T07:52:27.669Z,1003.61
2017-07-10T07:53:36.644Z,1003.56
2017-07-10T07:54:45.918Z,1003.54
2017-07-10T07:55:54.565Z,1003.53
2017-07-10T07:57:03.226Z,1003.53
2017-07-10T07:58:12.295Z,1003.49
2017-07-10T07:59:20.946Z,1003.49
2017-07-10T08:00:30.236Z,1003.53
2017-07-10T08:01:39.524Z,1003.5
2017-07-10T08:02:49.119Z,1003.54
2017-07-10T08:03:58.187Z,1003.57
2017-07-10T08:05:07.163Z,1003.58
2017-07-10T08:06:15.828Z,1003.57
2017-07-10T08:07:24.788Z,1003.56
2017-07-10T08:08:33.457Z,1003.58
2017-07-10T08:09:42.890Z,1003.58
2017-07-10T08:10:52.488Z,1003.58
2017-07-10T08:12:01.133Z,1003.56
2017-07-10T08:13:10.107Z,1003.55
2017-07-10T08:14:18.764Z,1003.59
2017-07-10T08:15:28.187Z,1003.6
2017-07-10T08:16:37.176Z,1003.59
2017-07-10T08:17:46.142Z,1003.6
2017-07-10T08:18:55.115Z,1003.58
2017-07-10T08:20:04.095Z,1003.57
2017-07-10T08:21:12.906Z,1003.52
2017-07-10T08:22:22.190Z,1003.52
2017-07-10T08:23:31.148Z,1003.54
2017-07-10T08:24:40.414Z,1003.53
2017-07-10T08:25:49.062Z,1003.51
2017-07-10T08:26:58.175Z,1003.55
2017-07-10T08:28:07.773Z,1003.56
2017-07-10T08:29:16.745Z,1003.53
2017-07-10T08:30:25.416Z,1003.48
2017-07-10T08:31:34.076Z,1003.47
2017-07-10T08:32:43.040Z,1003.44
2017-07-10T08:33:52.315Z,1003.43
2017-07-10T08:35:01.614Z,1003.42
2017-07-10T08:36:10.899Z,1003.39
2017-07-10T08:37:19.550Z,1003.38
2017-07-10T08:38:28.604Z,1003.36
2017-07-10T08:39:37.251Z,1003.36
2017-07-10T08:40:46.526Z,1003.39
2017-07-10T08:41:55.801Z,1003.36
2017-07-10T08:43:04.777Z,1003.37
2017-07-10T08:44:13.889Z,1003.38
2017-07-10T08:45:22.562Z,1003.37
2017-07-10T08:46:31.544Z,1003.41
2017-07-10T08:47:40.834Z,1003.37
2017-07-10T08:48:49.803Z,1003.42
2017-07-10T08:49:59.689Z,1003.4
2017-07-10T08:51:08.647Z,1003.41
2017-07-10T08:52:17.628Z,1003.41
2017-07-10T08:53:26.264Z,1003.38
2017-07-10T08:54:35.556Z,1003.36
2017-07-10T08:55:44.826Z,1003.36
2017-07-10T08:56:53.805Z,1003.37
2017-07-10T08:58:03.078Z,1003.33
2017-07-10T08:59:12.196Z,1003.3
2017-07-10T09:00:21.520Z,1003.27
2017-07-10T09:01:30.501Z,1003.27
2017-07-10T09:02:39.776Z,1003.27
2017-07-10T09:03:49.391Z,1003.28
2017-07-10T09:04:58.345Z,1003.25
2017-07-10T09:06:07.311Z,1003.26
2017-07-10T09:07:16.759Z,1003.28
2017-07-10T09:08:26.365Z,1003.26
2017-07-10T09:09:35.733Z,1003.25
2017-07-10T09:10:44.709Z,1003.26
2017-07-10T09:11:53.679Z,1003.24
2017-07-10T09:13:03.120Z,1003.24
2017-07-10T09:14:12.396Z,1003.26
2017-07-10T09:15:21.358Z,1003.22
2017-07-10T09:16:30.949Z,1003.21
2017-07-10T09:17:40.212Z,1003.18
2017-07-10T09:18:49.331Z,1003.23
2017-07-10T09:19:58.933Z,1003.22
2017-07-10T09:21:07.586Z,1003.26
2017-07-10T09:22:16.861Z,1003.28
2017-07-10T09:23:25.824Z,1003.29
2017-07-10T09:24:34.943Z,1003.32
2017-07-10T09:25:43.967Z,1003.36
2017-07-10T09:26:53.942Z,1003.36
2017-07-10T09:28:02.901Z,1003.39
2017-07-10T09:29:11.550Z,1003.4
2017-07-10T09:30:21.443Z,1003.44
2017-07-10T09:31:30.441Z,1003.42
2017-07-10T09:32:40.429Z,1003.43
2017-07-10T09:33:49.411Z,1003.42
2017-07-10T09:34:58.388Z,1003.43
2017-07-10T09:36:07.448Z,1003.43
2017-07-10T09:37:16.411Z,1003.51
2017-07-10T09:38:25.371Z,1003.52
2017-07-10T09:39:34.024Z,1003.54
2017-07-10T09:40:43.952Z,1003.55
2017-07-10T09:41:53.385Z,1003.57
2017-07-10T09:43:02.371Z,1003.56
2017-07-10T09:44:11.644Z,1003.57
2017-07-10T09:45:20.946Z,1003.54
2017-07-10T09:46:29.910Z,1003.61
2017-07-10T09:47:39.339Z,1003.59
2017-07-10T09:48:48.309Z,1003.58
2017-07-10T09:49:57.580Z,1003.59
2017-07-10T09:51:06.247Z,1003.61
2017-07-10T09:52:15.223Z,1003.61
2017-07-10T09:53:24.964Z,1003.62
2017-07-10T09:54:33.946Z,1003.64
2017-07-10T09:55:42.612Z,1003.58
2017-07-10T09:56:51.893Z,1003.59
2017-07-10T09:58:01.174Z,1003.55
2017-07-10T09:59:10.296Z,1003.56
2017-07-10T10:00:19.896Z,1003.53
2017-07-10T10:01:28.554Z,1003.51
2017-07-10T10:02:38.141Z,1003.51
2017-07-10T10:03:47.423Z,1003.48
2017-07-10T10:04:56.446Z,1003.58
2017-07-10T10:06:05.420Z,1003.52
2017-07-10T10:07:14.384Z,1003.56
2017-07-10T10:08:23.365Z,1003.54
2017-07-10T10:09:32.335Z,1003.49
2017-07-10T10:10:41.367Z,1003.51
2017-07-10T10:11:50.961Z,1003.47
2017-07-10T10:13:00.567Z,1003.43
2017-07-10T10:14:09.555Z,1003.39
2017-07-10T10:15:19.445Z,1003.37
2017-07-10T10:16:28.505Z,1003.38
2017-07-10T10:17:37.805Z,1003.39
2017-07-10T10:18:46.474Z,1003.4
2017-07-10T10:19:55.155Z,1003.38
2017-07-10T10:21:04.437Z,1003.37
2017-07-10T10:22:14.029Z,1003.38
2017-07-10T10:23:22.698Z,1003.4
2017-07-10T10:24:32.006Z,1003.38
2017-07-10T10:25:40.985Z,1003.36
2017-07-10T10:26:49.952Z,1003.35
2017-07-10T10:27:59.330Z,1003.32
2017-07-10T10:29:08.603Z,1003.3
2017-07-10T10:30:17.883Z,1003.36
2017-07-10T10:31:27.174Z,1003.34
2017-07-10T10:32:36.134Z,1003.35
2017-07-10T10:33:45.582Z,1003.4
2017-07-10T10:34:54.540Z,1003.45
2017-07-10T10:36:03.508Z,1003.41
2017-07-10T10:37:12.495Z,1003.47
2017-07-10T10:38:21.461Z,1003.45
2017-07-10T10:39:30.604Z,1003.5
2017-07-10T10:40:39.584Z,1003.4
2017-07-10T10:41:49.223Z,1003.36
2017-07-10T10:42:58.509Z,1003.38
2017-07-10T10:44:07.155Z,1003.38
2017-07-10T10:45:16.596Z,1003.34
2017-07-10T10:46:26.195Z,1003.38
2017-07-10T10:47:35.175Z,1003.43
2017-07-10T10:48:44.446Z,1003.36
2017-07-10T10:49:53.406Z,1003.34
2017-07-10T10:51:02.523Z,1003.32
2017-07-10T10:52:11.186Z,1003.3
2017-07-10T10:53:20.160Z,1003.31
2017-07-10T10:54:29.436Z,1003.33
2017-07-10T10:55:38.728Z,1003.31
2017-07-10T10:56:47.877Z,1003.29
2017-07-10T10:57:56.553Z,1003.3
2017-07-10T10:59:05.835Z,1003.27
2017-07-10T11:00:14.492Z,1003.27
2017-07-10T11:01:24.078Z,1003.27
2017-07-10T11:02:33.515Z,1003.25
2017-07-10T11:03:42.174Z,1003.27
2017-07-10T11:04:51.148Z,1003.28
2017-07-10T11:06:00.107Z,1003.27
2017-07-10T11:07:09.077Z,1003.27
2017-07-10T11:08:18.826Z,1003.24
2017-07-10T11:09:28.113Z,1003.23
2017-07-10T11:10:37.397Z,1003.28
2017-07-10T11:11:46.674Z,1003.25
2017-07-10T11:12:55.333Z,1003.3
2017-07-10T11:14:04.450Z,1003.25
2017-07-10T11:15:13.714Z,1003.26
2017-07-10T11:16:23.329Z,1003.28
2017-07-10T11:17:31.997Z,1003.25
2017-07-10T11:18:41.287Z,1003.24
2017-07-10T11:19:50.563Z,1003.2
2017-07-10T11:21:00.217Z,1003.19
2017-07-10T11:22:08.888Z,1003.21
2017-07-10T11:23:18.486Z,1003.27
2017-07-10T11:24:27.764Z,1003.2
2017-07-10T11:25:36.881Z,1003.21
2017-07-10T11:26:46.189Z,1003.2
2017-07-10T11:27:54.917Z,1003.14
2017-07-10T11:29:04.201Z,1003.15
2017-07-10T11:30:13.489Z,1003.13
2017-07-10T11:31:22.926Z,1003.13
2017-07-10T11:32:32.208Z,1003.11
2017-07-10T11:33:41.821Z,1003.11
2017-07-10T11:34:50.498Z,1003.14
2017-07-10T11:35:59.476Z,1003.12
2017-07-10T11:37:08.594Z,1003.11
2017-07-10T11:38:17.571Z,1003.09
2017-07-10T11:39:26.857Z,1003.05
2017-07-10T11:40:35.813Z,1003.07
2017-07-10T11:41:45.411Z,1003.03
2017-07-10T11:42:55.148Z,1002.99
2017-07-10T11:44:04.112Z,1003.03
2017-07-10T11:45:13.093Z,1003.04
2017-07-10T11:46:22.054Z,1003
2017-07-10T11:47:31.334Z,1002.99
2017-07-10T11:48:40.390Z,1002.98
2017-07-10T11:49:49.661Z,1003.01
2017-07-10T11:50:58.306Z,1003
2017-07-10T11:52:07.270Z,1003
2017-07-10T11:53:15.913Z,1002.99
2017-07-10T11:54:25.045Z,1002.98
2017-07-10T11:55:33.704Z,1003.01
2017-07-10T11:56:42.673Z,1002.93
2017-07-10T11:57:51.332Z,1002.86
2017-07-10T11:59:00.627Z,1002.88
2017-07-10T12:00:09.579Z,1002.9
2017-07-10T12:01:18.557Z,1002.89
2017-07-10T12:02:27.539Z,1002.92
2017-07-10T12:03:36.526Z,1002.86
2017-07-10T12:04:45.802Z,1002.83
2017-07-10T12:05:55.125Z,1002.83
2017-07-10T12:07:04.473Z,1002.81
2017-07-10T12:08:13.755Z,1002.78
2017-07-10T12:09:22.791Z,1002.8
2017-07-10T12:10:31.762Z,1002.79
2017-07-10T12:11:40.825Z,1002.78
2017-07-10T12:12:49.796Z,1002.76
2017-07-10T12:13:58.445Z,1002.7
2017-07-10T12:15:07.097Z,1002.72
2017-07-10T12:16:15.766Z,1002.76
2017-07-10T12:17:24.793Z,1002.77
2017-07-10T12:18:33.774Z,1002.73
2017-07-10T12:19:43.064Z,1002.77
2017-07-10T12:20:52.023Z,1002.78
2017-07-10T12:22:00.988Z,1002.74
2017-07-10T12:23:10.756Z,1002.67
2017-07-10T12:24:20.044Z,1002.71
2017-07-10T12:25:29.009Z,1002.66
2017-07-10T12:26:38.305Z,1002.75
2017-07-10T12:27:46.965Z,1002.71
2017-07-10T12:28:56.085Z,1002.71
2017-07-10T12:30:05.706Z,1002.66
2017-07-10T12:31:14.681Z,1002.6
2017-07-10T12:32:24.282Z,1002.57
2017-07-10T12:33:33.560Z,1002.63
2017-07-10T12:34:43.147Z,1002.58
2017-07-10T12:35:52.432Z,1002.57
2017-07-10T12:37:01.396Z,1002.6
2017-07-10T12:38:10.372Z,1002.6
2017-07-10T12:39:19.642Z,1002.64
2017-07-10T12:40:28.895Z,1002.58
2017-07-10T12:41:38.498Z,1002.58
2017-07-10T12:42:47.507Z,1002.61
2017-07-10T12:43:56.787Z,1002.58
2017-07-10T12:45:05.755Z,1002.59
2017-07-10T12:46:15.382Z,1002.59
2017-07-10T12:47:24.673Z,1002.6
2017-07-10T12:48:34.280Z,1002.57
2017-07-10T12:49:42.930Z,1002.56
2017-07-10T12:50:52.541Z,1002.55
2017-07-10T12:52:01.276Z,1002.56
2017-07-10T12:53:10.879Z,1002.55
2017-07-10T12:54:19.850Z,1002.57
2017-07-10T12:55:28.815Z,1002.55
2017-07-10T12:56:38.095Z,1002.54
2017-07-10T12:57:47.129Z,1002.58
2017-07-10T12:58:56.109Z,1002.59
2017-07-10T13:00:05.392Z,1002.59
2017-07-10T13:01:14.667Z,1002.55
2017-07-10T13:02:23.328Z,1002.54
2017-07-10T13:03:32.675Z,1002.5
2017-07-10T13:04:41.347Z,1002.47
2017-07-10T13:05:50.953Z,1002.52
2017-07-10T13:07:00.233Z,1002.45
2017-07-10T13:08:09.522Z,1002.47
2017-07-10T13:09:19.161Z,1002.41
2017-07-10T13:10:27.814Z,1002.46
2017-07-10T13:11:36.797Z,1002.49
2017-07-10T13:12:45.766Z,1002.49
2017-07-10T13:13:54.731Z,1002.47
2017-07-10T13:15:04.377Z,1002.49
2017-07-10T13:16:13.387Z,1002.48
2017-07-10T13:17:23.300Z,1002.53
2017-07-10T13:18:32.645Z,1002.52
2017-07-10T13:19:41.624Z,1002.48
2017-07-10T13:20:51.325Z,1002.52
2017-07-10T13:22:00.305Z,1002.49
2017-07-10T13:23:09.265Z,1002.48
2017-07-10T13:24:18.857Z,1002.51
2017-07-10T13:25:27.833Z,1002.5
2017-07-10T13:26:36.946Z,1002.51
2017-07-10T13:27:46.951Z,1002.53
2017-07-10T13:28:55.607Z,1002.51
2017-07-10T13:30:04.893Z,1002.53
2017-07-10T13:31:13.545Z,1002.55
2017-07-10T13:32:22.773Z,1002.55
2017-07-10T13:33:31.853Z,1002.5
2017-07-10T13:34:40.920Z,1002.47
2017-07-10T13:35:49.589Z,1002.43
2017-07-10T13:36:58.876Z,1002.44
2017-07-10T13:38:07.903Z,1002.43
2017-07-10T13:39:17.203Z,1002.44
2017-07-10T13:40:26.479Z,1002.47
2017-07-10T13:41:35.757Z,1002.47
2017-07-10T13:42:44.589Z,1002.46
2017-07-10T13:43:54.198Z,1002.49
2017-07-10T13:45:03.800Z,1002.49
2017-07-10T13:46:13.087Z,1002.48
2017-07-10T13:47:22.101Z,1002.5
2017-07-10T13:48:31.468Z,1002.5
2017-07-10T13:49:40.583Z,1002.52
2017-07-10T13:50:49.555Z,1002.53
2017-07-10T13:51:58.526Z,1002.52
2017-07-10T13:53:07.648Z,1002.58
2017-07-10T13:54:17.255Z,1002.55
2017-07-10T13:55:26.326Z,1002.5
2017-07-10T13:56:34.989Z,1002.47
2017-07-10T13:57:43.634Z,1002.47
2017-07-10T13:58:52.935Z,1002.49
2017-07-10T14:00:02.218Z,1002.5
2017-07-10T14:01:11.573Z,1002.47
2017-07-10T14:02:20.541Z,1002.49